createdAt,value
2023-01-19T00:00:53.213Z,5.30
2023-01-19T00:03:19.614Z,5.67
2023-01-19T00:05:46.295Z,4.57
2023-01-19T00:08:15.762Z,5.60
2023-01-19T00:10:44.875Z,6.03
2023-01-19T00:13:13.232Z,5.13
2023-01-19T00:15:39.668Z,5.43
2023-01-19T00:18:06.122Z,5.10
2023-01-19T00:20:32.901Z,5.18
2023-01-19T00:22:59.678Z,4.88
2023-01-19T00:25:26.419Z,4.68
2023-01-19T00:27:52.940Z,2.20
2023-01-19T00:30:19.476Z,1.23
2023-01-19T00:32:45.820Z,1.08
2023-01-19T00:35:12.242Z,0.82
2023-01-19T00:37:38.703Z,1.05
2023-01-19T00:40:05.688Z,0.60
2023-01-19T00:42:40.927Z,1.00
2023-01-19T00:45:09.212Z,0.60
2023-01-19T00:47:35.646Z,1.08
2023-01-19T00:50:02.248Z,1.17
2023-01-19T00:52:28.688Z,1.50
2023-01-19T00:54:55.069Z,2.30
2023-01-19T00:57:21.575Z,2.55
2023-01-19T00:59:47.949Z,3.17
2023-01-19T01:02:14.746Z,3.03
2023-01-19T01:04:41.367Z,4.30
2023-01-19T01:07:07.927Z,5.68
2023-01-19T01:09:34.292Z,5.50
2023-01-19T01:12:00.645Z,5.32
2023-01-19T01:14:27.093Z,5.38
2023-01-19T01:16:53.632Z,4.83
2023-01-19T01:19:20.495Z,5.93
2023-01-19T01:21:46.956Z,5.15
2023-01-19T01:24:13.313Z,4.80
2023-01-19T01:26:40.765Z,4.55
2023-01-19T01:29:08.353Z,4.70
2023-01-19T01:31:34.873Z,4.15
2023-01-19T01:34:01.395Z,4.28
2023-01-19T01:36:31.690Z,4.10
2023-01-19T01:38:58.275Z,3.10
2023-01-19T01:41:25.948Z,2.87
2023-01-19T01:43:58.489Z,2.55
2023-01-19T01:46:26.632Z,3.05
2023-01-19T01:49:11.911Z,2.70
2023-01-19T01:51:40.100Z,2.40
2023-01-19T01:54:24.528Z,2.10
2023-01-19T01:56:54.194Z,1.50
2023-01-19T01:59:26.211Z,1.50
2023-01-19T02:02:14.192Z,1.30
2023-01-19T02:04:47.536Z,0.68
2023-01-19T02:07:40.028Z,0.70
2023-01-19T02:10:25.364Z,0.60
2023-01-19T02:13:10.543Z,0.50
2023-01-19T02:15:36.874Z,0.60
2023-01-19T02:18:03.707Z,0.32
2023-01-19T02:20:32.956Z,0.40
2023-01-19T02:23:03.779Z,0.20
2023-01-19T02:25:30.645Z,0.30
2023-01-19T02:27:57.047Z,0.22
2023-01-19T02:30:24.129Z,0.30
2023-01-19T02:32:50.604Z,0.30
2023-01-19T02:35:17.224Z,0.20
2023-01-19T02:37:44.638Z,0.20
2023-01-19T02:40:14.459Z,0.30
2023-01-19T02:42:46.329Z,0.25
2023-01-19T02:45:16.727Z,0.20
2023-01-19T02:47:46.351Z,0.65
2023-01-19T02:50:38.225Z,0.25
2023-01-19T02:53:19.797Z,0.20
2023-01-19T02:55:54.712Z,0.35
2023-01-19T02:59:05.932Z,0.40
2023-01-19T03:01:46.710Z,0.40
2023-01-19T03:04:13.680Z,0.47
2023-01-19T03:06:53.144Z,0.30
2023-01-19T03:09:38.425Z,0.22
2023-01-19T03:12:13.816Z,0.20
2023-01-19T03:14:46.139Z,0.20
2023-01-19T03:17:17.027Z,0.13
2023-01-19T03:19:48.009Z,0.20
2023-01-19T03:22:27.316Z,0.30
2023-01-19T03:24:57.026Z,0.30
2023-01-19T03:27:31.160Z,0.10
2023-01-19T03:30:07.712Z,0.20
2023-01-19T03:32:41.019Z,0.20
2023-01-19T03:35:11.795Z,0.28
2023-01-19T03:37:43.310Z,0.20
2023-01-19T03:40:11.140Z,0.20
2023-01-19T03:42:39.086Z,0.20
2023-01-19T03:45:06.330Z,0.30
2023-01-19T03:47:33.807Z,0.35
2023-01-19T03:50:03.554Z,0.20
2023-01-19T03:52:34.910Z,0.10
2023-01-19T03:55:02.329Z,0.10
2023-01-19T03:57:28.735Z,0.20
2023-01-19T03:59:55.839Z,0.20
2023-01-19T04:02:22.736Z,0.23
2023-01-19T04:04:49.203Z,0.30
2023-01-19T04:07:15.738Z,0.30
2023-01-19T04:09:42.159Z,0.20
2023-01-19T04:12:09.004Z,0.40
2023-01-19T04:14:35.618Z,0.43
2023-01-19T04:17:02.008Z,0.20
2023-01-19T04:19:28.572Z,0.20
2023-01-19T04:21:55.644Z,0.28
2023-01-19T04:24:22.185Z,0.10
2023-01-19T04:26:51.782Z,0.20
2023-01-19T04:29:18.304Z,0.30
2023-01-19T04:31:44.697Z,0.20
2023-01-19T04:34:11.186Z,0.20
2023-01-19T04:36:37.581Z,0.20
2023-01-19T04:39:05.019Z,0.20
2023-01-19T04:41:31.720Z,0.10
2023-01-19T04:43:58.246Z,0.20
2023-01-19T04:46:24.820Z,0.20
2023-01-19T04:48:51.363Z,0.17
2023-01-19T04:51:17.940Z,0.40
2023-01-19T04:53:44.462Z,0.38
2023-01-19T04:56:11.005Z,0.90
2023-01-19T04:58:37.398Z,0.17
2023-01-19T05:01:08.121Z,0.38
2023-01-19T05:03:34.529Z,0.40
2023-01-19T05:06:00.983Z,0.17
2023-01-19T05:08:27.379Z,0.20
2023-01-19T05:10:53.855Z,0.20
2023-01-19T05:13:20.281Z,0.20
2023-01-19T05:15:46.761Z,0.20
2023-01-19T05:18:13.231Z,0.30
2023-01-19T05:20:40.129Z,0.28
2023-01-19T05:23:06.675Z,0.35
2023-01-19T05:25:33.125Z,1.55
2023-01-19T05:27:59.626Z,0.23
2023-01-19T05:30:26.031Z,0.30
2023-01-19T05:32:52.549Z,0.20
2023-01-19T05:35:27.805Z,0.47
2023-01-19T05:37:57.916Z,0.43
2023-01-19T05:40:24.284Z,0.40
2023-01-19T05:42:50.684Z,0.43
2023-01-19T05:45:17.195Z,0.43
2023-01-19T05:47:43.673Z,0.80
2023-01-19T05:50:10.537Z,0.30
2023-01-19T05:52:37.049Z,0.23
2023-01-19T05:55:03.700Z,0.80
2023-01-19T05:57:30.217Z,0.60
2023-01-19T05:59:56.695Z,1.23
2023-01-19T06:02:28.489Z,0.70
2023-01-19T06:04:55.451Z,0.97
2023-01-19T06:07:24.271Z,0.52
2023-01-19T06:09:50.891Z,0.90
2023-01-19T06:12:17.408Z,0.20
2023-01-19T06:14:43.885Z,0.43
2023-01-19T06:17:10.313Z,0.40
2023-01-19T06:19:36.810Z,0.60
2023-01-19T06:22:03.361Z,0.32
2023-01-19T06:24:29.893Z,0.38
2023-01-19T06:26:56.290Z,0.45
2023-01-19T06:29:23.144Z,0.60
2023-01-19T06:31:49.735Z,1.15
2023-01-19T06:34:16.328Z,0.73
2023-01-19T06:36:42.763Z,0.80
2023-01-19T06:39:10.661Z,0.30
2023-01-19T06:41:37.520Z,0.70
2023-01-19T06:44:04.847Z,0.47
2023-01-19T06:46:32.057Z,0.60
2023-01-19T06:48:58.480Z,0.95
2023-01-19T06:51:25.531Z,0.80
2023-01-19T06:53:51.942Z,0.20
2023-01-19T06:56:18.499Z,0.75
2023-01-19T06:58:47.549Z,0.52
2023-01-19T07:01:14.534Z,0.57
2023-01-19T07:03:40.983Z,0.77
2023-01-19T07:06:07.969Z,1.03
2023-01-19T07:08:37.972Z,0.73
2023-01-19T07:11:23.118Z,0.90
2023-01-19T07:13:57.043Z,0.82
2023-01-19T07:16:23.845Z,0.93
2023-01-19T07:18:50.808Z,0.50
2023-01-19T07:21:17.865Z,1.00
2023-01-19T07:23:44.446Z,0.50
2023-01-19T07:26:10.995Z,0.80
2023-01-19T07:28:37.726Z,0.65
2023-01-19T07:31:04.458Z,0.53
2023-01-19T07:33:30.945Z,0.52
2023-01-19T07:35:57.472Z,0.90
2023-01-19T07:38:23.866Z,0.80
2023-01-19T07:40:50.257Z,0.68
2023-01-19T07:43:16.912Z,0.50
2023-01-19T07:45:44.924Z,0.63
2023-01-19T07:48:11.464Z,0.80
2023-01-19T07:50:37.928Z,0.70
2023-01-19T07:53:09.129Z,0.98
2023-01-19T07:55:35.825Z,1.17
2023-01-19T07:58:06.429Z,1.23
2023-01-19T08:00:35.264Z,1.20
2023-01-19T08:03:03.699Z,1.20
2023-01-19T08:05:31.462Z,0.75
2023-01-19T08:07:59.093Z,1.20
2023-01-19T08:10:27.187Z,1.50
2023-01-19T08:12:54.666Z,1.10
2023-01-19T08:15:23.923Z,1.00
2023-01-19T08:18:00.943Z,1.05
2023-01-19T08:20:28.865Z,1.30
2023-01-19T08:23:00.235Z,1.08
2023-01-19T08:25:39.420Z,1.15
2023-01-19T08:28:07.378Z,1.02
2023-01-19T08:30:34.775Z,1.02
2023-01-19T08:33:07.208Z,1.27
2023-01-19T08:35:36.992Z,1.00
2023-01-19T08:38:05.127Z,1.42
2023-01-19T08:40:34.853Z,1.20
2023-01-19T08:43:07.838Z,1.10
2023-01-19T08:45:36.308Z,1.30
2023-01-19T08:48:04.218Z,2.45
2023-01-19T08:50:32.625Z,1.40
2023-01-19T08:53:00.658Z,1.25
2023-01-19T08:55:28.808Z,0.95
2023-01-19T08:57:57.877Z,1.13
2023-01-19T09:00:27.443Z,1.38
2023-01-19T09:02:54.967Z,1.10
2023-01-19T09:05:21.630Z,1.05
2023-01-19T09:07:48.378Z,1.08
2023-01-19T09:10:15.646Z,1.33
2023-01-19T09:12:43.943Z,1.23
2023-01-19T09:15:12.255Z,0.70
2023-01-19T09:17:38.767Z,1.00
2023-01-19T09:20:05.956Z,0.77
2023-01-19T09:22:33.355Z,0.63
2023-01-19T09:25:00.239Z,0.70
2023-01-19T09:27:26.729Z,0.60
2023-01-19T09:29:53.990Z,1.15
2023-01-19T09:32:21.299Z,0.60
2023-01-19T09:34:47.842Z,0.60
2023-01-19T09:37:16.086Z,0.60
2023-01-19T09:39:42.733Z,0.60
2023-01-19T09:42:45.115Z,0.65
2023-01-19T09:45:19.682Z,0.50
2023-01-19T09:47:48.516Z,0.40
2023-01-19T09:50:27.341Z,1.20
2023-01-19T09:53:23.190Z,0.47
2023-01-19T09:55:50.107Z,0.68
2023-01-19T09:58:19.283Z,1.02
2023-01-19T10:00:53.141Z,0.60
2023-01-19T10:03:20.711Z,0.63
2023-01-19T10:05:52.780Z,0.30
2023-01-19T10:08:40.969Z,0.63
2023-01-19T10:11:29.138Z,1.00
2023-01-19T10:13:59.231Z,0.60
2023-01-19T10:16:41.247Z,0.50
2023-01-19T10:19:16.982Z,0.80
2023-01-19T10:21:46.377Z,0.65
2023-01-19T10:24:12.805Z,1.08
2023-01-19T10:26:52.479Z,0.50
2023-01-19T10:29:30.316Z,0.88
2023-01-19T10:32:12.526Z,0.70
2023-01-19T10:34:39.494Z,0.88
2023-01-19T10:37:31.159Z,0.35
2023-01-19T10:40:15.588Z,0.80
2023-01-19T10:42:42.436Z,0.50
2023-01-19T10:45:21.164Z,0.60
2023-01-19T10:47:49.077Z,0.40
2023-01-19T10:50:18.637Z,0.75
2023-01-19T10:52:50.772Z,0.80
2023-01-19T10:55:24.463Z,0.85
2023-01-19T10:57:53.013Z,0.38
2023-01-19T11:00:40.303Z,0.75
2023-01-19T11:03:29.800Z,0.40
2023-01-19T11:06:17.655Z,0.70
2023-01-19T11:08:46.117Z,0.40
2023-01-19T11:11:13.274Z,0.40
2023-01-19T11:13:41.609Z,0.38
2023-01-19T11:16:15.667Z,0.65
2023-01-19T11:18:43.978Z,1.00
2023-01-19T11:21:13.811Z,0.63
2023-01-19T11:23:46.584Z,0.40
2023-01-19T11:26:24.621Z,0.40
2023-01-19T11:28:54.669Z,0.35
2023-01-19T11:31:32.453Z,0.57
2023-01-19T11:34:21.920Z,0.45
2023-01-19T11:37:00.229Z,0.22
2023-01-19T11:39:29.585Z,0.45
2023-01-19T11:42:02.135Z,0.50
2023-01-19T11:44:35.271Z,0.93
2023-01-19T11:47:11.774Z,0.50
2023-01-19T11:49:51.021Z,0.50
2023-01-19T11:52:59.114Z,1.15
2023-01-19T11:55:50.931Z,0.47
2023-01-19T11:58:19.334Z,0.50
2023-01-19T12:00:55.031Z,0.68
2023-01-19T12:03:34.096Z,0.20
2023-01-19T12:06:06.760Z,0.30
2023-01-19T12:08:37.096Z,0.60
2023-01-19T12:11:05.886Z,0.40
2023-01-19T12:13:33.951Z,0.60
2023-01-19T12:16:03.983Z,0.68
2023-01-19T12:18:37.533Z,0.30
2023-01-19T12:21:04.459Z,0.30
2023-01-19T12:23:31.165Z,0.60
2023-01-19T12:26:00.800Z,0.30
2023-01-19T12:28:34.036Z,0.22
2023-01-19T12:31:01.608Z,0.40
2023-01-19T12:33:40.625Z,0.60
2023-01-19T12:36:10.261Z,0.30
2023-01-19T12:38:45.489Z,0.40
2023-01-19T12:41:35.294Z,0.35
2023-01-19T12:44:11.145Z,0.70
2023-01-19T12:46:41.958Z,0.40
2023-01-19T12:49:29.794Z,0.20
2023-01-19T12:52:28.871Z,0.30
2023-01-19T12:54:58.559Z,0.30
2023-01-19T12:57:50.057Z,0.50
2023-01-19T13:00:22.671Z,0.30
2023-01-19T13:03:00.742Z,0.30
2023-01-19T13:05:39.496Z,0.60
2023-01-19T13:08:06.329Z,0.40
2023-01-19T13:11:00.619Z,0.35
2023-01-19T13:13:42.239Z,0.30
2023-01-19T13:16:18.081Z,0.20
2023-01-19T13:18:47.886Z,0.32
2023-01-19T13:21:26.570Z,0.20
2023-01-19T13:23:56.738Z,0.45
2023-01-19T13:26:26.365Z,0.30
2023-01-19T13:28:57.315Z,0.40
2023-01-19T13:31:25.612Z,0.30
2023-01-19T13:33:54.685Z,0.20
2023-01-19T13:36:32.691Z,0.40
2023-01-19T13:39:04.125Z,0.47
2023-01-19T13:41:35.551Z,0.20
2023-01-19T13:44:07.649Z,0.30
2023-01-19T13:46:34.562Z,0.50
2023-01-19T13:49:11.280Z,0.22
2023-01-19T13:51:37.713Z,0.47
2023-01-19T13:54:05.599Z,0.30
2023-01-19T13:56:32.252Z,0.55
2023-01-19T13:59:05.210Z,0.50
2023-01-19T14:01:32.943Z,0.55
2023-01-19T14:04:00.046Z,0.50
2023-01-19T14:06:41.569Z,0.30
2023-01-19T14:09:16.712Z,0.30
2023-01-19T14:12:07.384Z,0.60
2023-01-19T14:14:34.126Z,0.50
2023-01-19T14:17:04.865Z,0.30
2023-01-19T14:19:48.220Z,0.20
2023-01-19T14:22:14.798Z,0.35
2023-01-19T14:24:41.341Z,0.43
2023-01-19T14:27:22.852Z,0.30
2023-01-19T14:29:50.688Z,0.30
2023-01-19T14:32:25.344Z,0.30
2023-01-19T14:35:04.267Z,0.30
2023-01-19T14:37:47.503Z,0.80
2023-01-19T14:40:20.407Z,0.35
2023-01-19T14:42:52.873Z,0.30
2023-01-19T14:45:24.075Z,0.30
2023-01-19T14:47:55.110Z,0.50
2023-01-19T14:50:25.824Z,0.40
2023-01-19T14:53:15.110Z,0.40
2023-01-19T14:55:49.448Z,0.40
2023-01-19T14:58:18.018Z,0.40
2023-01-19T15:00:45.867Z,0.30
2023-01-19T15:03:12.815Z,0.40
2023-01-19T15:05:40.979Z,0.40
2023-01-19T15:08:11.075Z,0.40
2023-01-19T15:10:37.700Z,0.40
2023-01-19T15:13:04.834Z,0.30
2023-01-19T15:15:33.663Z,0.20
2023-01-19T15:18:05.163Z,0.30
2023-01-19T15:20:31.570Z,0.20
2023-01-19T15:22:58.155Z,0.40
2023-01-19T15:25:27.833Z,0.40
2023-01-19T15:27:58.504Z,0.20
2023-01-19T15:30:31.103Z,0.65
2023-01-19T15:32:58.907Z,0.40
2023-01-19T15:35:26.458Z,0.20
2023-01-19T15:37:52.916Z,0.35
2023-01-19T15:40:20.840Z,0.47
2023-01-19T15:42:47.450Z,0.70
2023-01-19T15:45:32.971Z,0.45
2023-01-19T15:48:01.599Z,0.40
2023-01-19T15:50:28.437Z,0.30
2023-01-19T15:52:55.100Z,0.40
2023-01-19T15:55:21.680Z,0.57
2023-01-19T15:57:48.821Z,0.30
2023-01-19T16:00:15.878Z,0.30
2023-01-19T16:02:42.383Z,0.30
2023-01-19T16:05:09.771Z,0.52
2023-01-19T16:07:36.313Z,1.00
2023-01-19T16:10:04.499Z,0.43
2023-01-19T16:12:31.137Z,0.37
2023-01-19T16:14:57.705Z,0.75
2023-01-19T16:17:24.211Z,0.40
2023-01-19T16:19:50.646Z,0.60
2023-01-19T16:22:17.212Z,0.50
2023-01-19T16:24:43.713Z,0.33
2023-01-19T16:27:10.129Z,0.28
2023-01-19T16:29:36.736Z,0.50
2023-01-19T16:32:03.104Z,0.47
2023-01-19T16:34:29.752Z,0.80
2023-01-19T16:36:56.179Z,0.70
2023-01-19T16:39:22.690Z,1.17
2023-01-19T16:41:49.215Z,0.35
2023-01-19T16:44:17.025Z,0.40
2023-01-19T16:46:45.740Z,0.70
2023-01-19T16:49:15.404Z,0.73
2023-01-19T16:51:42.374Z,1.10
2023-01-19T16:54:13.271Z,2.35
2023-01-19T16:56:39.889Z,2.45
2023-01-19T16:59:06.342Z,2.65
2023-01-19T17:01:33.575Z,2.43
2023-01-19T17:04:00.070Z,2.30
2023-01-19T17:06:26.710Z,2.45
2023-01-19T17:08:53.146Z,2.60
2023-01-19T17:11:23.352Z,1.98
2023-01-19T17:13:54.317Z,1.43
2023-01-19T17:16:21.617Z,1.30
2023-01-19T17:18:48.350Z,1.80
2023-01-19T17:21:17.840Z,1.25
2023-01-19T17:23:46.327Z,1.38
2023-01-19T17:26:13.127Z,1.40
2023-01-19T17:28:40.071Z,1.40
2023-01-19T17:31:08.787Z,1.25
2023-01-19T17:33:35.605Z,1.30
2023-01-19T17:36:08.783Z,1.23
2023-01-19T17:38:36.371Z,1.17
2023-01-19T17:41:02.905Z,1.50
2023-01-19T17:43:29.347Z,1.35
2023-01-19T17:45:55.906Z,1.60
2023-01-19T17:48:22.461Z,1.80
2023-01-19T17:50:49.098Z,2.03
2023-01-19T17:53:15.682Z,2.28
2023-01-19T17:55:42.085Z,2.08
2023-01-19T17:58:08.691Z,1.83
2023-01-19T18:00:35.572Z,1.98
2023-01-19T18:03:02.079Z,1.80
2023-01-19T18:05:28.702Z,2.53
2023-01-19T18:07:55.059Z,2.97
2023-01-19T18:10:21.658Z,3.22
2023-01-19T18:12:48.193Z,6.15
2023-01-19T18:15:16.827Z,6.87
2023-01-19T18:17:43.534Z,6.47
2023-01-19T18:20:11.046Z,6.10
2023-01-19T18:22:37.623Z,4.43
2023-01-19T18:25:04.341Z,4.47
2023-01-19T18:27:31.032Z,4.03
2023-01-19T18:29:57.568Z,4.05
2023-01-19T18:32:25.831Z,3.58
2023-01-19T18:34:53.988Z,3.20
2023-01-19T18:37:20.387Z,3.63
2023-01-19T18:39:46.869Z,3.60
2023-01-19T18:42:13.400Z,3.58
2023-01-19T18:44:39.924Z,3.55
2023-01-19T18:47:06.374Z,4.20
2023-01-19T18:49:32.885Z,4.00
2023-01-19T18:51:59.396Z,4.70
2023-01-19T18:54:25.903Z,4.07
2023-01-19T18:56:52.459Z,4.50
2023-01-19T18:59:18.946Z,4.25
2023-01-19T19:01:45.575Z,3.70
2023-01-19T19:04:12.109Z,3.30
2023-01-19T19:06:38.490Z,2.88
2023-01-19T19:09:05.245Z,3.33
2023-01-19T19:11:31.852Z,2.85
2023-01-19T19:14:01.192Z,2.58
2023-01-19T19:16:28.862Z,2.20
2023-01-19T19:18:55.613Z,2.50
2023-01-19T19:21:25.123Z,2.15
2023-01-19T19:23:56.246Z,1.83
2023-01-19T19:26:24.526Z,1.63
2023-01-19T19:28:50.889Z,2.03
2023-01-19T19:31:20.819Z,1.73
2023-01-19T19:33:48.598Z,2.15
2023-01-19T19:36:15.177Z,1.98
2023-01-19T19:38:42.901Z,1.65
2023-01-19T19:41:12.585Z,1.17
2023-01-19T19:43:39.384Z,1.40
2023-01-19T19:46:08.423Z,0.88
2023-01-19T19:48:38.192Z,0.80
2023-01-19T19:51:23.719Z,1.05
2023-01-19T19:53:51.849Z,0.70
2023-01-19T19:56:21.223Z,1.23
2023-01-19T19:58:48.487Z,0.75
2023-01-19T20:01:17.923Z,0.45
2023-01-19T20:03:44.638Z,0.50
2023-01-19T20:06:16.444Z,0.60
2023-01-19T20:08:43.630Z,0.32
2023-01-19T20:11:13.369Z,0.30
2023-01-19T20:13:41.947Z,0.57
2023-01-19T20:16:11.501Z,0.40
2023-01-19T20:18:43.410Z,0.63
2023-01-19T20:21:15.081Z,0.30
2023-01-19T20:23:42.161Z,0.20
2023-01-19T20:26:10.576Z,0.30
2023-01-19T20:28:38.101Z,0.60
2023-01-19T20:31:15.365Z,0.80
2023-01-19T20:33:42.833Z,0.60
2023-01-19T20:36:10.544Z,0.50
2023-01-19T20:38:37.744Z,0.40
2023-01-19T20:41:05.489Z,0.40
2023-01-19T20:43:32.640Z,0.20
2023-01-19T20:45:59.148Z,0.28
2023-01-19T20:48:25.909Z,0.30
2023-01-19T20:51:08.539Z,0.30
2023-01-19T20:53:35.709Z,0.30
2023-01-19T20:56:15.292Z,0.30
2023-01-19T20:58:42.153Z,0.20
2023-01-19T21:01:21.750Z,0.17
2023-01-19T21:03:49.051Z,0.22
2023-01-19T21:06:16.524Z,0.20
2023-01-19T21:08:43.791Z,0.20
2023-01-19T21:11:10.832Z,0.20
2023-01-19T21:13:37.301Z,0.38
2023-01-19T21:16:04.314Z,0.30
2023-01-19T21:18:31.183Z,0.50
2023-01-19T21:20:58.170Z,0.80
2023-01-19T21:23:26.287Z,1.35
2023-01-19T21:25:54.833Z,0.80
2023-01-19T21:28:22.898Z,1.00
2023-01-19T21:30:50.446Z,1.00
2023-01-19T21:33:17.333Z,1.03
2023-01-19T21:35:51.628Z,0.80
2023-01-19T21:38:18.553Z,1.38
2023-01-19T21:40:45.352Z,1.10
2023-01-19T21:43:13.400Z,1.17
2023-01-19T21:45:43.014Z,1.27
2023-01-19T21:48:10.016Z,1.58
2023-01-19T21:50:36.553Z,1.80
2023-01-19T21:53:03.510Z,1.42
2023-01-19T21:55:30.077Z,1.55
2023-01-19T21:57:56.739Z,2.20
2023-01-19T22:00:23.256Z,1.90
2023-01-19T22:03:03.130Z,2.38
2023-01-19T22:05:30.365Z,2.10
2023-01-19T22:07:56.850Z,2.40
2023-01-19T22:10:23.374Z,2.40
2023-01-19T22:12:49.959Z,1.98
2023-01-19T22:15:16.334Z,2.50
2023-01-19T22:17:42.721Z,2.92
2023-01-19T22:20:09.927Z,2.60
2023-01-19T22:22:36.411Z,3.20
2023-01-19T22:25:04.382Z,2.83
2023-01-19T22:27:33.378Z,3.05
2023-01-19T22:29:59.954Z,3.47
2023-01-19T22:32:26.386Z,3.78
2023-01-19T22:34:52.854Z,3.50
2023-01-19T22:37:19.262Z,3.88
2023-01-19T22:39:45.618Z,3.22
2023-01-19T22:42:12.089Z,2.85
2023-01-19T22:44:38.715Z,3.65
2023-01-19T22:47:05.116Z,3.43
2023-01-19T22:49:31.597Z,3.10
2023-01-19T22:51:58.168Z,3.50
2023-01-19T22:54:24.722Z,3.15
2023-01-19T22:56:51.179Z,2.83
2023-01-19T22:59:17.714Z,3.60
2023-01-19T23:01:44.422Z,3.47
2023-01-19T23:04:14.492Z,3.65
2023-01-19T23:06:40.877Z,2.95
2023-01-19T23:09:14.223Z,3.70
2023-01-19T23:11:43.480Z,3.30
2023-01-19T23:14:14.600Z,2.95
2023-01-19T23:16:41.414Z,3.47
2023-01-19T23:19:08.081Z,3.03
2023-01-19T23:21:34.707Z,2.97
2023-01-19T23:24:03.028Z,3.20
2023-01-19T23:26:30.784Z,3.60
2023-01-19T23:29:01.793Z,3.35
2023-01-19T23:31:34.377Z,3.28
2023-01-19T23:34:03.610Z,3.40
2023-01-19T23:36:32.495Z,3.37
2023-01-19T23:39:02.750Z,3.50
2023-01-19T23:41:31.011Z,3.10
2023-01-19T23:43:57.461Z,2.90
2023-01-19T23:46:24.452Z,3.20
2023-01-19T23:48:51.017Z,3.00
2023-01-19T23:51:21.370Z,2.60
2023-01-19T23:53:48.515Z,2.78
2023-01-19T23:56:22.564Z,2.25
2023-01-19T23:59:02.852Z,2.78
